Time;durP1;ratioP1;P1;durP2;ratioP2;P2;SDS_P1;SDS_P2;PMS_P1;PMS_P2;Temp;Humidity;BMP_temperature;BMP_pressure;BME280_temperature;BME280_humidity;BME280_pressure;Samples;Min_cycle;Max_cycle;Signal;HPM_P1;HPM_P2
2020/12/01 00:01:59;;;;;;;28.50;13.75;;;-1.20;99.00;;;;;;5055946;28;20163;-84
2020/12/01 00:04:37;;;;;;;26.40;13.32;;;-1.40;98.40;;;;;;5071953;28;20025;-85
2020/12/01 00:07:03;;;;;;;28.80;13.45;;;-1.40;98.30;;;;;;5055552;28;20033;-87
2020/12/01 00:09:28;;;;;;;23.52;12.88;;;-1.40;97.20;;;;;;5056006;28;20032;-85
2020/12/01 00:11:54;;;;;;;26.15;13.27;;;-1.50;96.60;;;;;;5056336;28;20032;-86
2020/12/01 00:14:26;;;;;;;28.88;13.65;;;-1.60;97.10;;;;;;5072241;28;20028;-86
2020/12/01 00:16:57;;;;;;;22.23;11.77;;;-1.60;97.60;;;;;;5072783;28;20032;-85
2020/12/01 00:19:23;;;;;;;23.75;11.80;;;-1.60;97.20;;;;;;5072652;28;20432;-85
2020/12/01 00:21:57;;;;;;;22.45;11.13;;;-1.50;98.30;;;;;;5072669;28;20112;-85
2020/12/01 00:24:28;;;;;;;18.67;10.15;;;-1.60;98.40;;;;;;5057231;28;20082;-85
2020/12/01 00:26:54;;;;;;;18.20;10.45;;;-1.40;98.00;;;;;;5076282;28;20043;-85
2020/12/01 00:29:20;;;;;;;17.38;10.10;;;-1.60;97.20;;;;;;5072522;28;20533;-86
2020/12/01 00:31:53;;;;;;;17.63;9.73;;;-1.60;97.30;;;;;;5072463;28;20028;-86
2020/12/01 00:34:19;;;;;;;19.92;9.38;;;-1.60;97.90;;;;;;5054318;28;20038;-86
2020/12/01 00:36:45;;;;;;;22.23;10.52;;;-1.60;96.20;;;;;;5055556;28;20100;-85
2020/12/01 00:39:13;;;;;;;17.98;9.25;;;-1.60;97.10;;;;;;5072289;28;20032;-85
2020/12/01 00:41:39;;;;;;;20.98;10.18;;;-1.50;96.60;;;;;;5072103;28;20055;-86
2020/12/01 00:44:08;;;;;;;19.80;9.18;;;-1.50;96.50;;;;;;5055353;28;20029;-85
2020/12/01 00:46:36;;;;;;;16.77;8.80;;;-1.60;96.70;;;;;;5071260;28;20039;-86
2020/12/01 00:49:01;;;;;;;18.10;9.55;;;-1.80;96.40;;;;;;5071846;28;20036;-84
2020/12/01 00:51:30;;;;;;;14.77;7.97;;;-1.90;97.90;;;;;;5072268;28;20056;-86
2020/12/01 00:53:55;;;;;;;17.30;8.00;;;-1.80;98.30;;;;;;5055174;28;20024;-86
2020/12/01 00:56:23;;;;;;;15.27;8.20;;;-1.80;98.10;;;;;;5088461;28;20016;-85
2020/12/01 00:58:49;;;;;;;10.02;6.57;;;-1.80;99.40;;;;;;5071756;28;20115;-85
2020/12/01 01:01:15;;;;;;;15.40;6.88;;;-1.90;99.90;;;;;;5071561;28;20024;-84
2020/12/01 01:03:48;;;;;;;13.45;7.53;;;-2.00;99.90;;;;;;5071579;28;20032;-84
2020/12/01 01:06:14;;;;;;;11.15;6.13;;;-2.00;99.90;;;;;;5071362;28;20055;-85
2020/12/01 01:08:40;;;;;;;10.82;6.47;;;-1.90;99.90;;;;;;5071416;28;20024;-86
2020/12/01 01:11:07;;;;;;;9.85;5.55;;;-1.70;99.90;;;;;;5071713;28;20032;-87
2020/12/01 01:13:33;;;;;;;10.63;5.97;;;-1.80;99.90;;;;;;5071604;28;20025;-86
2020/12/01 01:16:00;;;;;;;12.38;5.40;;;-1.90;99.90;;;;;;5071084;28;20401;-86
2020/12/01 01:18:26;;;;;;;9.70;5.40;;;-1.70;99.90;;;;;;5071548;28;20032;-86
2020/12/01 01:20:52;;;;;;;15.57;5.78;;;-1.70;99.90;;;;;;5054974;28;20056;-85
2020/12/01 01:23:18;;;;;;;10.45;5.82;;;-1.60;99.90;;;;;;5054859;28;20052;-86
2020/12/01 01:25:43;;;;;;;9.70;5.68;;;-1.60;99.90;;;;;;5071035;28;20115;-86
2020/12/01 01:28:09;;;;;;;10.00;5.70;;;-1.60;99.90;;;;;;5088343;28;20024;-86
2020/12/01 01:30:38;;;;;;;9.57;5.25;;;-1.70;99.90;;;;;;5088472;28;20095;-86
2020/12/01 01:33:08;;;;;;;11.00;4.95;;;-1.90;99.90;;;;;;5070503;28;20103;-86
2020/12/01 01:35:34;;;;;;;7.55;4.38;;;-1.80;99.90;;;;;;5070733;28;20021;-86
2020/12/01 01:38:06;;;;;;;11.98;5.35;;;-1.70;99.90;;;;;;5071128;28;20082;-86
2020/12/01 01:43:29;;;;;;;12.90;5.57;;;-1.70;99.90;;;;;;5071040;28;20055;-84
2020/12/01 01:46:00;;;;;;;8.70;4.63;;;-1.70;99.90;;;;;;5070946;28;20021;-85
2020/12/01 01:48:36;;;;;;;8.98;4.80;;;-1.50;99.90;;;;;;5087938;28;20035;-85
2020/12/01 01:51:17;;;;;;;7.70;4.57;;;-1.40;99.90;;;;;;5070817;28;20110;-86
2020/12/01 01:53:46;;;;;;;;;;;-1.20;99.90;;;;;;5054565;28;20584;-84
2020/12/01 01:56:22;;;;;;;5.88;3.70;;;-0.90;99.90;;;;;;5069984;28;20265;-86
2020/12/01 01:58:58;;;;;;;9.80;4.88;;;-0.80;99.00;;;;;;5072046;28;20477;-85
2020/12/01 02:01:29;;;;;;;7.63;4.82;;;-0.80;98.10;;;;;;5069779;28;20037;-85
2020/12/01 02:04:04;;;;;;;12.17;6.37;;;-0.70;97.90;;;;;;5070696;28;20119;-85
2020/12/01 02:06:47;;;;;;;14.75;6.38;;;-0.70;96.90;;;;;;5087072;28;20273;-86
2020/12/01 02:09:27;;;;;;;12.73;6.57;;;-0.70;96.50;;;;;;5070359;28;20028;-85
2020/12/01 02:11:59;;;;;;;11.23;6.47;;;-0.80;95.90;;;;;;5070613;28;20021;-85
2020/12/01 02:14:52;;;;;;;11.35;6.22;;;-0.90;95.80;;;;;;5070093;28;20029;-85
2020/12/01 02:17:39;;;;;;;15.10;6.78;;;-0.80;96.30;;;;;;5070537;28;20052;-86
2020/12/01 02:20:36;;;;;;;12.38;6.53;;;-0.70;95.80;;;;;;5080590;28;20083;-87
2020/12/01 02:23:03;;;;;;;12.88;6.50;;;-0.70;95.20;;;;;;5071728;28;20078;-86
2020/12/01 02:25:32;;;;;;;12.57;6.22;;;-0.80;95.40;;;;;;5054219;28;20078;-86
2020/12/01 02:28:02;;;;;;;10.63;5.63;;;-0.80;94.60;;;;;;5070253;28;20035;-87
2020/12/01 02:30:44;;;;;;;9.65;5.13;;;-1.00;94.90;;;;;;5070046;28;20477;-86
2020/12/01 02:33:20;;;;;;;8.98;5.60;;;-1.20;94.80;;;;;;5069373;28;20111;-87
2020/12/01 02:35:46;;;;;;;9.15;4.80;;;-1.20;95.90;;;;;;5069781;28;20025;-87
2020/12/01 02:38:14;;;;;;;10.18;6.20;;;-1.10;95.90;;;;;;5070013;28;20027;-85
2020/12/01 02:40:46;;;;;;;9.70;5.25;;;-0.90;95.30;;;;;;5082754;28;20036;-85
2020/12/01 02:43:20;;;;;;;10.90;5.95;;;-0.90;94.40;;;;;;5070216;28;20031;-86
2020/12/01 02:45:48;;;;;;;11.13;6.20;;;-0.90;94.10;;;;;;5083989;28;20124;-84
2020/12/01 02:48:16;;;;;;;10.93;5.68;;;-1.00;94.60;;;;;;5070162;28;20436;-85
2020/12/01 02:50:50;;;;;;;8.30;5.47;;;-1.10;94.60;;;;;;5070264;28;20043;-87
2020/12/01 02:53:21;;;;;;;12.23;6.60;;;-1.20;94.70;;;;;;5070062;28;20020;-85
2020/12/01 02:55:49;;;;;;;14.57;6.90;;;-1.20;94.80;;;;;;5053613;28;20028;-85
2020/12/01 02:58:18;;;;;;;10.85;6.20;;;-1.20;95.20;;;;;;5053622;28;20036;-86
2020/12/01 03:00:51;;;;;;;15.00;7.18;;;-1.00;95.40;;;;;;5070419;28;20393;-84
2020/12/01 03:03:20;;;;;;;15.15;7.57;;;-1.00;94.50;;;;;;5069739;28;20033;-85
2020/12/01 03:05:49;;;;;;;17.27;9.23;;;-1.40;94.90;;;;;;5069894;28;20036;-85
2020/12/01 03:08:20;;;;;;;15.68;7.78;;;-1.50;96.10;;;;;;5071435;28;20082;-85
2020/12/01 03:10:48;;;;;;;18.13;9.77;;;-1.60;96.30;;;;;;5074353;28;20031;-85
2020/12/01 03:13:21;;;;;;;17.05;9.05;;;-1.70;96.30;;;;;;5074094;28;20067;-86
2020/12/01 03:16:03;;;;;;;14.80;7.95;;;-1.80;96.90;;;;;;5073331;28;20028;-86
2020/12/01 03:18:39;;;;;;;15.90;7.80;;;-1.60;97.90;;;;;;5073749;28;20523;-85
2020/12/01 03:21:25;;;;;;;17.25;7.40;;;-1.50;97.30;;;;;;5088153;28;20512;-85
2020/12/01 03:24:07;;;;;;;17.23;7.57;;;-1.40;97.50;;;;;;5073156;28;20036;-85
2020/12/01 03:26:39;;;;;;;14.25;7.78;;;-1.30;98.00;;;;;;5073632;28;20028;-86
2020/12/01 03:29:05;;;;;;;15.23;7.20;;;-1.20;96.70;;;;;;5056506;28;20528;-85
2020/12/01 03:31:34;;;;;;;14.95;7.63;;;-1.50;96.80;;;;;;5074010;28;20040;-86
2020/12/01 03:34:08;;;;;;;14.45;7.07;;;-1.40;97.00;;;;;;5072947;28;20028;-85
2020/12/01 03:36:36;;;;;;;13.50;6.57;;;-1.40;98.70;;;;;;5073556;28;20070;-85
2020/12/01 03:39:16;;;;;;;13.77;6.65;;;-1.60;98.30;;;;;;5073256;28;20029;-85
2020/12/01 03:41:45;;;;;;;12.48;7.15;;;-1.60;99.60;;;;;;5056559;28;20047;-86
2020/12/01 03:44:16;;;;;;;14.38;7.40;;;-1.70;99.90;;;;;;5072931;28;20036;-85
2020/12/01 03:46:57;;;;;;;14.18;6.35;;;-1.50;99.90;;;;;;5073796;28;20032;-85
2020/12/01 03:49:27;;;;;;;12.85;7.38;;;-1.40;99.90;;;;;;5072367;28;20067;-83
2020/12/01 03:51:53;;;;;;;10.90;6.18;;;-1.20;99.90;;;;;;5073565;28;20025;-85
2020/12/01 03:54:24;;;;;;;9.60;5.78;;;-1.00;98.90;;;;;;5071859;28;20106;-85
2020/12/01 03:57:03;;;;;;;7.87;4.57;;;-0.90;97.40;;;;;;5089032;28;20029;-86
2020/12/01 03:59:29;;;;;;;10.55;5.88;;;-1.20;97.50;;;;;;5073634;28;20071;-85
2020/12/01 04:02:18;;;;;;;10.88;5.47;;;-1.00;98.50;;;;;;5073183;28;20435;-85
2020/12/01 04:04:47;;;;;;;;;;;-1.00;97.70;;;;;;5073264;28;20390;-85
2020/12/01 04:07:18;;;;;;;9.35;4.63;;;-1.20;98.60;;;;;;5056089;28;19908;-85
2020/12/01 04:09:50;;;;;;;8.05;4.22;;;-1.30;99.20;;;;;;5072718;28;20017;-84
2020/12/01 04:12:21;;;;;;;11.38;5.88;;;-1.30;99.50;;;;;;5072956;28;20052;-84
2020/12/01 04:15:00;;;;;;;;;;;;;;;;;;;;;
2020/12/01 04:17:34;;;;;;;9.10;5.20;;;-1.20;99.90;;;;;;5072075;28;20040;-85
2020/12/01 04:20:12;;;;;;;11.35;5.55;;;-1.10;98.90;;;;;;5071927;28;20166;-85
2020/12/01 04:22:39;;;;;;;9.55;5.13;;;-1.00;99.60;;;;;;5057008;28;20054;-86
2020/12/01 04:25:23;;;;;;;6.75;3.78;;;-0.90;99.50;;;;;;5072042;28;20107;-85
2020/12/01 04:27:57;;;;;;;6.70;3.45;;;-0.90;98.10;;;;;;5089739;28;20111;-86
2020/12/01 04:30:34;;;;;;;6.22;3.83;;;-0.90;98.10;;;;;;5057131;28;20025;-86
2020/12/01 04:33:08;;;;;;;6.68;3.33;;;-0.80;97.30;;;;;;5072018;28;20492;-86
2020/12/01 04:35:34;;;;;;;5.57;3.15;;;-0.60;96.90;;;;;;5072009;28;20055;-86
2020/12/01 04:40:55;;;;;;;6.10;3.42;;;-0.50;95.60;;;;;;5058302;28;20037;-86
2020/12/01 04:43:42;;;;;;;9.25;3.38;;;-0.50;94.90;;;;;;5072962;28;20495;-86
2020/12/01 04:46:14;;;;;;;5.57;3.28;;;-0.50;94.80;;;;;;5055063;28;20468;-86
2020/12/01 04:48:54;;;;;;;8.18;4.40;;;-0.60;94.90;;;;;;5072547;28;20028;-86
2020/12/01 04:51:27;;;;;;;7.05;4.00;;;-0.60;95.60;;;;;;5089160;28;20023;-87
2020/12/01 04:54:28;;;;;;;6.10;3.83;;;-0.70;95.20;;;;;;5072717;28;20103;-86
2020/12/01 04:57:22;;;;;;;7.50;4.47;;;-0.80;96.70;;;;;;5089281;28;20021;-87
2020/12/01 04:59:58;;;;;;;6.93;4.25;;;-1.00;97.40;;;;;;5055643;28;20044;-86
2020/12/01 05:02:49;;;;;;;7.05;4.70;;;-1.10;98.70;;;;;;5055184;28;20477;-87
2020/12/01 05:06:03;;;;;;;8.25;4.35;;;-1.10;98.60;;;;;;5054803;28;20127;-85
2020/12/01 05:08:45;;;;;;;7.43;4.07;;;-1.00;99.90;;;;;;5071755;28;20024;-86
2020/12/01 05:11:17;;;;;;;9.32;4.18;;;-0.80;99.00;;;;;;5072133;28;20090;-86
2020/12/01 05:13:45;;;;;;;8.50;4.85;;;-0.70;98.10;;;;;;5055255;28;20021;-86
2020/12/01 05:16:29;;;;;;;9.70;4.85;;;-0.80;98.40;;;;;;5073575;28;20021;-86
2020/12/01 05:18:55;;;;;;;9.05;5.05;;;-1.00;98.70;;;;;;5088685;28;20078;-85
2020/12/01 05:21:24;;;;;;;8.02;4.72;;;-0.90;99.90;;;;;;5078847;28;20037;-86
2020/12/01 05:23:51;;;;;;;8.40;4.68;;;-0.70;99.90;;;;;;5073449;28;20104;-86
2020/12/01 05:26:20;;;;;;;9.98;5.45;;;-0.70;99.90;;;;;;5071582;28;20024;-86
2020/12/01 05:28:54;;;;;;;8.02;4.63;;;-0.60;99.90;;;;;;5071579;28;20111;-86
2020/12/01 05:31:25;;;;;;;8.82;4.57;;;-0.60;99.90;;;;;;5071189;28;20052;-86
2020/12/01 05:34:03;;;;;;;8.48;4.78;;;-0.60;99.90;;;;;;5129739;22;20366;-75
2020/12/01 05:36:33;;;;;;;9.38;4.57;;;-0.60;99.90;;;;;;5051776;28;20547;-75
2020/12/01 05:39:13;;;;;;;8.35;4.82;;;-0.50;99.90;;;;;;5051456;28;20527;-74
2020/12/01 05:41:41;;;;;;;7.32;4.20;;;-0.60;99.90;;;;;;5050496;28;20443;-75
2020/12/01 05:44:23;;;;;;;8.57;4.90;;;-0.40;99.90;;;;;;5051614;28;20111;-75
2020/12/01 05:47:05;;;;;;;8.02;4.15;;;-0.30;99.90;;;;;;5051606;28;20028;-75
2020/12/01 05:49:35;;;;;;;7.43;4.10;;;-0.10;99.90;;;;;;5050147;28;20029;-75
2020/12/01 05:52:18;;;;;;;11.60;4.43;;;-0.20;99.90;;;;;;5050237;28;20431;-75
2020/12/01 05:55:04;;;;;;;7.30;4.22;;;-0.20;99.60;;;;;;5050029;28;20048;-75
2020/12/01 05:57:30;;;;;;;8.10;4.30;;;-0.20;98.20;;;;;;5050077;28;20116;-74
2020/12/01 06:00:12;;;;;;;8.95;4.50;;;0.10;97.30;;;;;;5051016;28;20101;-75
2020/12/01 06:02:43;;;;;;;10.10;5.43;;;0.10;96.20;;;;;;5051381;28;20392;-75
2020/12/01 06:05:13;;;;;;;11.98;5.32;;;0.10;96.90;;;;;;5051069;28;20017;-75
2020/12/01 06:07:42;;;;;;;7.82;3.67;;;0.00;97.20;;;;;;5050174;28;20400;-74
2020/12/01 06:10:27;;;;;;;7.93;4.63;;;-0.10;97.80;;;;;;5049607;28;20226;-74
2020/12/01 06:13:09;;;;;;;8.73;4.25;;;-0.20;99.40;;;;;;5049931;28;20451;-74
2020/12/01 06:15:36;;;;;;;;;;;-0.10;99.90;;;;;;5051347;28;20354;-75
2020/12/01 06:18:18;;;;;;;11.05;4.50;;;-0.10;98.90;;;;;;5049820;28;19987;-74
2020/12/01 06:20:56;;;;;;;9.13;4.35;;;-0.10;99.30;;;;;;5051036;28;20086;-74
2020/12/01 06:23:24;;;;;;;6.75;4.10;;;-0.10;99.90;;;;;;5049889;28;20029;-75
2020/12/01 06:26:18;;;;;;;7.18;4.20;;;-0.10;99.80;;;;;;5049808;28;20024;-74
2020/12/01 06:29:03;;;;;;;8.30;4.32;;;0.10;99.70;;;;;;5051401;28;20027;-74
2020/12/01 06:31:53;;;;;;;8.68;4.63;;;0.10;98.70;;;;;;5050722;28;20435;-75
2020/12/01 06:34:46;;;;;;;8.95;4.35;;;0.20;98.60;;;;;;5049475;28;20496;-75
2020/12/01 06:37:49;;;;;;;10.80;4.30;;;0.30;97.50;;;;;;5050970;28;20021;-75
2020/12/01 06:40:39;;;;;;;37.28;8.82;;;0.20;98.30;;;;;;5050709;28;20036;-74
2020/12/01 06:43:26;;;;;;;14.30;6.55;;;0.30;98.90;;;;;;5050607;28;20025;-74
2020/12/01 06:45:58;;;;;;;15.50;5.78;;;0.40;99.10;;;;;;5030675;28;20424;-74
2020/12/01 06:48:38;;;;;;;15.30;6.40;;;0.50;98.60;;;;;;5029377;28;20493;-75
2020/12/01 06:51:05;;;;;;;11.43;6.05;;;0.60;98.20;;;;;;5029351;28;20418;-74
2020/12/01 06:53:36;;;;;;;8.35;4.95;;;0.40;98.60;;;;;;5029486;28;20028;-74
2020/12/01 06:56:05;;;;;;;11.65;5.47;;;0.50;98.70;;;;;;5030295;28;20022;-75
2020/12/01 06:58:35;;;;;;;11.77;7.57;;;0.50;98.80;;;;;;5012731;28;20040;-75
2020/12/01 07:01:31;;;;;;;14.75;7.07;;;0.70;99.00;;;;;;5035206;28;20029;-74
2020/12/01 07:04:08;;;;;;;27.02;8.45;;;0.80;98.30;;;;;;5033317;28;20044;-74
2020/12/01 07:06:45;;;;;;;23.23;9.38;;;0.90;98.00;;;;;;5049913;28;20051;-74
2020/12/01 07:09:18;;;;;;;19.65;6.82;;;0.90;98.00;;;;;;5048605;28;20055;-74
2020/12/01 07:12:01;;;;;;;12.82;6.30;;;0.70;97.70;;;;;;5049938;28;20386;-74
2020/12/01 07:14:32;;;;;;;14.98;5.22;;;0.70;99.70;;;;;;5032235;28;20481;-75
2020/12/01 07:16:58;;;;;;;12.90;4.75;;;0.80;99.00;;;;;;5045058;28;20029;-74
2020/12/01 07:19:42;;;;;;;20.45;7.93;;;0.90;99.20;;;;;;5028958;28;20025;-74
2020/12/01 07:22:25;;;;;;;10.32;6.20;;;0.80;98.40;;;;;;5030560;28;20021;-74
2020/12/01 07:25:04;;;;;;;12.43;5.70;;;0.90;98.30;;;;;;5029138;28;20036;-74
2020/12/01 07:28:04;;;;;;;7.75;4.70;;;0.90;98.40;;;;;;5028628;28;20025;-74
2020/12/01 07:30:44;;;;;;;10.00;5.82;;;0.80;98.10;;;;;;5029105;28;20515;-74
2020/12/01 07:33:14;;;;;;;10.80;5.43;;;0.80;99.90;;;;;;5012510;28;20444;-74
2020/12/01 07:35:45;;;;;;;8.18;5.00;;;0.70;99.30;;;;;;5030454;28;20048;-76
2020/12/01 07:38:33;;;;;;;7.82;5.03;;;0.50;99.90;;;;;;5050166;28;20078;-74
2020/12/01 07:41:22;;;;;;;6.55;4.40;;;0.70;99.90;;;;;;5049167;28;20103;-75
2020/12/01 07:44:03;;;;;;;7.18;4.65;;;0.60;99.90;;;;;;5049957;28;20112;-75
2020/12/01 07:46:30;;;;;;;9.98;4.95;;;0.60;99.90;;;;;;5048914;28;20103;-75
2020/12/01 07:49:01;;;;;;;8.70;4.55;;;0.70;99.90;;;;;;5044641;28;20037;-75
2020/12/01 07:51:29;;;;;;;8.70;5.20;;;0.70;99.90;;;;;;5039110;28;20033;-75
2020/12/01 07:53:57;;;;;;;9.05;5.88;;;0.60;99.90;;;;;;5037441;28;20539;-75
2020/12/01 07:56:26;;;;;;;10.23;5.53;;;0.50;99.90;;;;;;5037435;28;20078;-75
2020/12/01 07:59:02;;;;;;;8.07;4.78;;;0.70;99.90;;;;;;5031254;28;20033;-75
2020/12/01 08:01:28;;;;;;;9.05;5.35;;;0.60;99.90;;;;;;5033320;28;20047;-75
2020/12/01 08:04:04;;;;;;;9.20;4.97;;;0.70;99.90;;;;;;5046179;28;20025;-75
2020/12/01 08:06:30;;;;;;;8.13;4.97;;;0.80;99.90;;;;;;5040734;28;20087;-75
2020/12/01 08:08:56;;;;;;;6.93;4.35;;;0.80;99.90;;;;;;5046640;28;20025;-76
2020/12/01 08:11:23;;;;;;;8.50;4.55;;;0.90;99.90;;;;;;5046550;28;20027;-75
2020/12/01 08:13:55;;;;;;;7.55;3.88;;;1.00;99.90;;;;;;5023601;28;20508;-76
2020/12/01 08:16:23;;;;;;;12.48;4.55;;;0.90;99.90;;;;;;5036954;28;20021;-76
2020/12/01 08:18:52;;;;;;;6.38;4.30;;;1.00;99.90;;;;;;5013552;28;20096;-76
2020/12/01 08:21:28;;;;;;;10.40;4.43;;;0.90;99.90;;;;;;5027435;28;20030;-76
2020/12/01 08:23:58;;;;;;;8.38;4.78;;;1.10;99.90;;;;;;5017823;28;20080;-76
2020/12/01 08:26:28;;;;;;;6.78;3.67;;;1.10;99.90;;;;;;5000395;28;20180;-76
2020/12/01 08:29:00;;;;;;;8.50;3.83;;;1.20;99.90;;;;;;5021921;28;20428;-75
2020/12/01 08:31:40;;;;;;;12.52;6.72;;;1.20;99.90;;;;;;5022148;28;20033;-76
2020/12/01 08:34:13;;;;;;;11.23;4.70;;;1.30;99.90;;;;;;5037900;28;20044;-75
2020/12/01 08:37:14;;;;;;;8.45;4.57;;;1.40;99.90;;;;;;5010111;28;20026;-76
2020/12/01 08:39:54;;;;;;;7.93;4.43;;;1.40;99.90;;;;;;4992871;28;20436;-74
2020/12/01 08:42:23;;;;;;;8.93;4.63;;;1.60;99.90;;;;;;5009473;28;20072;-74
2020/12/01 08:45:13;;;;;;;6.85;3.78;;;1.60;99.90;;;;;;5028197;28;20496;-74
2020/12/01 08:47:42;;;;;;;9.57;3.65;;;1.60;99.90;;;;;;5025430;28;20030;-74
2020/12/01 08:50:26;;;;;;;6.95;3.70;;;1.60;99.90;;;;;;5019876;28;20021;-74
2020/12/01 08:53:07;;;;;;;5.72;3.00;;;1.70;99.90;;;;;;5023088;28;20037;-76
2020/12/01 08:55:44;;;;;;;8.27;4.63;;;1.70;99.90;;;;;;5003915;28;20032;-76
2020/12/01 08:58:25;;;;;;;5.93;3.00;;;1.80;99.90;;;;;;5029118;28;20048;-75
2020/12/01 09:01:14;;;;;;;8.27;3.80;;;1.70;99.90;;;;;;5026394;28;20359;-75
2020/12/01 09:03:55;;;;;;;4.57;3.30;;;1.90;99.90;;;;;;5022514;28;20037;-76
2020/12/01 09:06:36;;;;;;;14.10;3.78;;;2.10;99.90;;;;;;5026045;28;20025;-75
2020/12/01 09:09:17;;;;;;;7.40;3.33;;;2.10;99.90;;;;;;5006910;28;20056;-75
2020/12/01 09:15:09;;;;;;;7.25;3.50;;;2.00;99.90;;;;;;5018812;28;20401;-76
2020/12/01 09:23:12;;;;;;;6.68;3.17;;;2.20;99.90;;;;;;5022105;28;20021;-75
2020/12/01 09:25:40;;;;;;;6.13;3.75;;;2.30;99.90;;;;;;5024937;28;20407;-77
2020/12/01 09:28:18;;;;;;;5.60;3.28;;;2.40;99.90;;;;;;5022869;28;20025;-76
2020/12/01 09:30:44;;;;;;;7.90;5.22;;;2.40;99.90;;;;;;4999495;28;20037;-77
2020/12/01 09:33:13;;;;;;;8.95;3.75;;;2.40;99.90;;;;;;5021197;28;20026;-76
2020/12/01 09:35:39;;;;;;;12.55;5.85;;;2.50;99.90;;;;;;5004834;28;20091;-76
2020/12/01 09:38:05;;;;;;;10.20;4.55;;;2.50;99.90;;;;;;5019753;28;20046;-76
2020/12/01 09:40:33;;;;;;;8.05;4.18;;;2.50;99.90;;;;;;5016614;28;20030;-76
2020/12/01 09:43:08;;;;;;;7.10;4.13;;;2.40;99.90;;;;;;5015920;28;20041;-75
2020/12/01 09:45:39;;;;;;;12.25;3.78;;;2.50;99.90;;;;;;5017834;28;20030;-75
2020/12/01 09:50:36;;;;;;;9.50;3.65;;;2.40;99.90;;;;;;5027632;28;20071;-75
2020/12/01 09:53:21;;;;;;;10.75;5.25;;;2.40;99.90;;;;;;5025145;28;20021;-76
2020/12/01 10:08:55;;;;;;;14.25;5.68;;;2.40;99.90;;;;;;5015645;28;20029;-77
2020/12/01 10:12:03;;;;;;;20.67;8.75;;;2.50;99.90;;;;;;5022101;28;20396;-76
2020/12/01 10:29:33;;;;;;;10.57;5.47;;;2.70;99.90;;;;;;5024093;28;20113;-76
2020/12/01 10:36:29;;;;;;;7.43;4.47;;;2.50;99.90;;;;;;5018522;28;20022;-75
2020/12/01 10:38:55;;;;;;;9.20;4.20;;;2.50;99.90;;;;;;5020419;28;20033;-75
2020/12/01 10:41:32;;;;;;;9.85;4.72;;;2.40;99.90;;;;;;5001804;28;20413;-75
2020/12/01 10:44:04;;;;;;;8.38;4.10;;;2.40;99.90;;;;;;5015052;28;20459;-76
2020/12/01 10:46:32;;;;;;;13.38;4.35;;;2.40;99.90;;;;;;5025613;28;20057;-75
2020/12/01 10:48:58;;;;;;;13.15;4.88;;;2.50;99.90;;;;;;5019056;28;20030;-76
2020/12/01 10:51:24;;;;;;;12.90;4.13;;;2.60;99.90;;;;;;5002071;28;20105;-75
2020/12/01 10:53:50;;;;;;;7.00;3.53;;;2.80;99.90;;;;;;5018595;28;20057;-75
2020/12/01 10:56:16;;;;;;;6.72;3.95;;;2.90;99.90;;;;;;5015105;28;20026;-75
2020/12/01 10:58:42;;;;;;;8.88;3.95;;;3.00;99.90;;;;;;5022649;28;20498;-75
2020/12/01 11:01:08;;;;;;;9.75;4.30;;;3.00;99.90;;;;;;5011342;28;20026;-77
2020/12/01 11:03:33;;;;;;;6.90;4.22;;;3.00;99.90;;;;;;5022526;28;20029;-76
2020/12/01 11:05:59;;;;;;;5.80;3.92;;;3.00;99.90;;;;;;5019773;28;20029;-76
2020/12/01 11:08:25;;;;;;;9.15;4.55;;;3.10;99.90;;;;;;5021039;28;20649;-75
2020/12/01 11:10:51;;;;;;;15.60;5.15;;;3.10;99.90;;;;;;5022529;28;20397;-75
2020/12/01 11:13:17;;;;;;;20.23;5.53;;;3.10;99.90;;;;;;5015874;28;20502;-76
2020/12/01 11:15:43;;;;;;;7.43;3.83;;;3.20;99.90;;;;;;5018364;28;20049;-75
2020/12/01 11:18:09;;;;;;;7.10;4.18;;;3.20;99.90;;;;;;5002813;28;20481;-75
2020/12/01 11:20:36;;;;;;;16.23;4.32;;;3.20;99.90;;;;;;5015773;28;20136;-76
2020/12/01 11:23:02;;;;;;;16.15;5.65;;;3.30;99.90;;;;;;5022733;28;20108;-76
2020/12/01 11:25:28;;;;;;;6.38;3.63;;;3.50;99.90;;;;;;5016493;28;20085;-75
2020/12/01 11:27:53;;;;;;;13.48;4.97;;;3.50;99.90;;;;;;5020228;28;20109;-75
2020/12/01 11:30:21;;;;;;;10.20;4.25;;;3.60;99.90;;;;;;5021781;28;20071;-75
2020/12/01 11:32:47;;;;;;;8.30;3.97;;;3.60;99.90;;;;;;5023848;28;20032;-75
2020/12/01 11:35:15;;;;;;;12.43;4.07;;;3.50;99.90;;;;;;5004852;28;20026;-75
2020/12/01 11:37:41;;;;;;;11.40;4.05;;;3.60;99.90;;;;;;5022280;28;20036;-75
2020/12/01 11:40:08;;;;;;;4.85;3.78;;;3.50;99.90;;;;;;5019526;28;20374;-75
2020/12/01 11:42:34;;;;;;;9.27;3.83;;;3.60;99.90;;;;;;5028623;28;20100;-76
2020/12/01 11:45:00;;;;;;;15.25;4.32;;;3.80;99.90;;;;;;5023992;28;20034;-75
2020/12/01 11:47:26;;;;;;;17.40;4.15;;;3.70;99.90;;;;;;5005379;28;20025;-77
2020/12/01 11:49:51;;;;;;;11.50;4.03;;;3.70;99.90;;;;;;5022654;28;20494;-76
2020/12/01 11:52:17;;;;;;;20.45;3.67;;;3.80;99.90;;;;;;5022507;28;20532;-76
2020/12/01 11:54:43;;;;;;;6.93;3.10;;;3.80;99.90;;;;;;5020223;28;20473;-76
2020/12/01 11:57:09;;;;;;;10.40;4.18;;;4.00;99.90;;;;;;5020297;28;20515;-76
2020/12/01 11:59:34;;;;;;;8.63;3.83;;;4.10;99.90;;;;;;5018382;28;20062;-76
2020/12/01 12:02:00;;;;;;;13.95;3.67;;;4.30;99.90;;;;;;5022686;28;20025;-76
2020/12/01 12:04:26;;;;;;;16.80;5.03;;;4.30;99.90;;;;;;5025293;28;20056;-76
2020/12/01 12:06:51;;;;;;;7.53;3.58;;;4.00;99.90;;;;;;5017706;28;20508;-76
2020/12/01 12:09:18;;;;;;;18.98;4.82;;;4.00;99.90;;;;;;5025479;28;20064;-75
2020/12/01 12:11:44;;;;;;;9.63;4.80;;;4.00;99.90;;;;;;5019415;28;20061;-76
2020/12/01 12:14:11;;;;;;;4.57;2.90;;;3.90;99.90;;;;;;5019300;28;20422;-76
2020/12/01 12:16:37;;;;;;;13.02;3.42;;;4.00;99.90;;;;;;5022583;28;20018;-76
2020/12/01 12:19:03;;;;;;;17.17;3.38;;;4.10;99.90;;;;;;5001372;28;20029;-77
2020/12/01 12:21:29;;;;;;;13.00;3.25;;;4.00;99.90;;;;;;5008601;28;20613;-75
2020/12/01 12:23:55;;;;;;;14.05;4.05;;;4.00;99.90;;;;;;5022911;28;20033;-75
2020/12/01 12:26:21;;;;;;;13.35;4.57;;;4.10;99.90;;;;;;5023137;28;20034;-75
2020/12/01 12:28:47;;;;;;;21.92;5.00;;;4.10;99.90;;;;;;5016747;28;20026;-76
2020/12/01 12:31:14;;;;;;;13.75;5.32;;;4.10;99.90;;;;;;5021030;28;20397;-75
2020/12/01 12:33:40;;;;;;;12.45;6.43;;;4.20;99.90;;;;;;5007691;28;20029;-76
2020/12/01 12:36:06;;;;;;;8.18;4.20;;;4.20;99.90;;;;;;5020708;28;20017;-78
2020/12/01 12:38:32;;;;;;;13.15;3.83;;;4.10;99.90;;;;;;5020619;28;20434;-76
2020/12/01 12:40:58;;;;;;;17.70;4.43;;;4.10;99.90;;;;;;5016395;28;20535;-76
2020/12/01 12:43:26;;;;;;;10.82;5.18;;;4.10;99.90;;;;;;5024620;28;20117;-76
2020/12/01 12:45:52;;;;;;;20.13;4.28;;;4.30;99.90;;;;;;5020689;28;20060;-76
2020/12/01 12:48:19;;;;;;;16.23;5.28;;;4.30;99.90;;;;;;5015573;28;20025;-76
2020/12/01 12:50:45;;;;;;;17.67;5.93;;;4.30;99.90;;;;;;5017706;28;20060;-76
2020/12/01 12:53:11;;;;;;;8.57;5.50;;;4.30;99.90;;;;;;5018202;28;20018;-76
2020/12/01 12:55:37;;;;;;;11.75;4.97;;;4.00;99.90;;;;;;5017204;28;20022;-76
2020/12/01 12:58:03;;;;;;;19.92;5.88;;;4.00;99.90;;;;;;5020921;28;20029;-77
2020/12/01 13:00:32;;;;;;;25.00;5.57;;;4.10;99.90;;;;;;5019288;28;20393;-76
2020/12/01 13:02:58;;;;;;;20.15;4.10;;;4.10;99.90;;;;;;5025885;28;20095;-78
2020/12/01 13:05:24;;;;;;;34.25;4.88;;;4.00;99.90;;;;;;5031023;28;20033;-76
2020/12/01 13:07:50;;;;;;;13.23;3.92;;;3.90;99.90;;;;;;5020728;28;20025;-76
2020/12/01 13:10:17;;;;;;;16.73;4.57;;;4.00;99.90;;;;;;5019915;28;20026;-76
2020/12/01 13:12:43;;;;;;;15.57;3.70;;;4.10;99.90;;;;;;5016846;28;20026;-76
2020/12/01 13:15:10;;;;;;;18.17;4.97;;;4.00;99.90;;;;;;5020109;28;20594;-76
2020/12/01 13:17:36;;;;;;;8.18;3.92;;;4.10;99.90;;;;;;5016500;28;20025;-76
2020/12/01 13:20:04;;;;;;;20.55;4.97;;;4.00;99.90;;;;;;5015337;28;20438;-76
2020/12/01 13:22:29;;;;;;;10.32;3.40;;;3.90;99.90;;;;;;5020698;28;20017;-77
2020/12/01 13:24:55;;;;;;;12.13;4.32;;;3.90;99.90;;;;;;5029298;28;20499;-78
2020/12/01 13:27:21;;;;;;;11.65;4.10;;;3.80;99.90;;;;;;5016936;28;20109;-76
2020/12/01 13:29:47;;;;;;;8.85;3.67;;;3.80;99.90;;;;;;5004031;28;20041;-76
2020/12/01 13:32:13;;;;;;;10.90;3.58;;;3.80;99.90;;;;;;5020122;28;20393;-76
2020/12/01 13:34:38;;;;;;;7.80;3.85;;;3.80;99.90;;;;;;5021563;28;20513;-76
2020/12/01 13:37:04;;;;;;;17.88;6.57;;;3.80;99.90;;;;;;5021330;28;20026;-76
2020/12/01 13:39:30;;;;;;;14.00;4.32;;;3.80;99.90;;;;;;5021076;28;20067;-76
2020/12/01 13:41:56;;;;;;;20.38;6.45;;;3.70;99.90;;;;;;5019565;28;20032;-78
2020/12/01 13:44:22;;;;;;;25.83;10.18;;;3.70;99.90;;;;;;5025147;28;21343;-76
2020/12/01 13:46:53;;;;;;;19.73;7.00;;;3.70;99.90;;;;;;5025862;28;20421;-76
2020/12/01 13:49:19;;;;;;;24.23;7.20;;;3.60;99.90;;;;;;5025775;28;20025;-76
2020/12/01 13:51:45;;;;;;;18.08;5.88;;;3.60;99.90;;;;;;5022780;28;20032;-76
2020/12/01 13:54:11;;;;;;;15.77;6.50;;;3.50;99.90;;;;;;5006995;28;20056;-76
2020/12/01 13:56:37;;;;;;;29.90;10.50;;;3.50;99.90;;;;;;5024187;28;20054;-76
2020/12/01 13:59:03;;;;;;;31.30;12.73;;;3.50;99.90;;;;;;4994734;28;20552;-76
2020/12/01 14:01:29;;;;;;;25.13;11.77;;;3.50;99.90;;;;;;5022410;28;20392;-78
2020/12/01 14:03:54;;;;;;;11.30;5.78;;;3.50;99.90;;;;;;5021059;28;20087;-76